Aviation Digital Data Service (ADDS)

Output produced by METARs form (0032 UTC 19 August 2019)
found at http://www.aviationweather.gov/metar/data/
 
METAR text: EDSB 190020Z AUTO 22004KT 9999 BKN027/// BKN034/// OVC040/// 19/18 Q1014
Conditions at: EDSB (KARLSRUHE/BADEN , DE) observed 0020 UTC 19 August 2019
Temperature: 19.0°C (66°F)
Dewpoint: 18.0°C (64°F) [RH = 94%]
Pressure (altimeter): 29.94 inches Hg (1014.0 mb)
Winds: from the SW (220 degrees) at 5 MPH (4 knots; 2.1 m/s)
Visibility: 6 or more miles (10+ km)
Ceiling: 2700 feet AGL
Clouds: broken clouds at 2700 feet AGL
broken clouds at 3400 feet AGL
overcast cloud deck at 4000 feet AGL
Weather: no significant weather observed at this time

METAR text: EDSB 182350Z AUTO 22003KT 9999 FEW029/// BKN037/// OVC072/// 19/18 Q1014
Conditions at: EDSB (KARLSRUHE/BADEN , DE) observed 2350 UTC 18 August 2019
Temperature: 19.0°C (66°F)
Dewpoint: 18.0°C (64°F) [RH = 94%]
Pressure (altimeter): 29.94 inches Hg (1014.0 mb)
Winds: from the SW (220 degrees) at 3 MPH (3 knots; 1.5 m/s)
Visibility: 6 or more miles (10+ km)
Ceiling: 3700 feet AGL
Clouds: few clouds at 2900 feet AGL
broken clouds at 3700 feet AGL
overcast cloud deck at 7200 feet AGL
Weather: no significant weather observed at this time

METAR text: EDSB 182320Z AUTO 21005KT 9999 FEW038/// BKN072/// BKN190/// 19/18 Q1014
Conditions at: EDSB (KARLSRUHE/BADEN , DE) observed 2320 UTC 18 August 2019
Temperature: 19.0°C (66°F)
Dewpoint: 18.0°C (64°F) [RH = 94%]
Pressure (altimeter): 29.94 inches Hg (1014.0 mb)
Winds: from the SSW (210 degrees) at 6 MPH (5 knots; 2.6 m/s)
Visibility: 6 or more miles (10+ km)
Ceiling: 7200 feet AGL
Clouds: few clouds at 3800 feet AGL
broken clouds at 7200 feet AGL
broken clouds at 19000 feet AGL
Weather: no significant weather observed at this time

METAR text: EDSB 182250Z AUTO 24003KT 9999 FEW039/// BKN069/// BKN100/// 19/18 Q1013
Conditions at: EDSB (KARLSRUHE/BADEN , DE) observed 2250 UTC 18 August 2019
Temperature: 19.0°C (66°F)
Dewpoint: 18.0°C (64°F) [RH = 94%]
Pressure (altimeter): 29.91 inches Hg (1013.0 mb)
Winds: from the WSW (240 degrees) at 3 MPH (3 knots; 1.5 m/s)
Visibility: 6 or more miles (10+ km)
Ceiling: 6900 feet AGL
Clouds: few clouds at 3900 feet AGL
broken clouds at 6900 feet AGL
broken clouds at 10000 feet AGL
Weather: no significant weather observed at this time

METAR text: EDSB 182220Z AUTO 22004KT 9999 FEW030/// BKN064/// BKN190/// 19/18 Q1013
Conditions at: EDSB (KARLSRUHE/BADEN , DE) observed 2220 UTC 18 August 2019
Temperature: 19.0°C (66°F)
Dewpoint: 18.0°C (64°F) [RH = 94%]
Pressure (altimeter): 29.91 inches Hg (1013.0 mb)
Winds: from the SW (220 degrees) at 5 MPH (4 knots; 2.1 m/s)
Visibility: 6 or more miles (10+ km)
Ceiling: 6400 feet AGL
Clouds: few clouds at 3000 feet AGL
broken clouds at 6400 feet AGL
broken clouds at 19000 feet AGL
Weather: no significant weather observed at this time

METAR text: EDSB 182150Z 18006KT CAVOK 20/18 Q1013
Conditions at: EDSB (KARLSRUHE/BADEN , DE) observed 2150 UTC 18 August 2019
Temperature: 20.0°C (68°F)
Dewpoint: 18.0°C (64°F) [RH = 88%]
Pressure (altimeter): 29.91 inches Hg (1013.0 mb)
Winds: from the S (180 degrees) at 7 MPH (6 knots; 3.1 m/s)
Visibility: 6 or more miles (10+ km)
Ceiling: ceiling and visibility are OK
Clouds: unknown
Weather: no significant weather observed at this time

METAR text: EDSB 182120Z 17006KT 9999 FEW047 20/18 Q1013
Conditions at: EDSB (KARLSRUHE/BADEN , DE) observed 2120 UTC 18 August 2019
Temperature: 20.0°C (68°F)
Dewpoint: 18.0°C (64°F) [RH = 88%]
Pressure (altimeter): 29.91 inches Hg (1013.0 mb)
Winds: from the S (170 degrees) at 7 MPH (6 knots; 3.1 m/s)
Visibility: 6 or more miles (10+ km)
Ceiling: at least 12,000 feet AGL
Clouds: few clouds at 4700 feet AGL
Weather: no significant weather observed at this time

METAR text: EDSB 182050Z VRB03KT 9999 VCSH FEW048 BKN064CB 20/17 Q1012
Conditions at: EDSB (KARLSRUHE/BADEN , DE) observed 2050 UTC 18 August 2019
Temperature: 20.0°C (68°F)
Dewpoint: 17.0°C (63°F) [RH = 83%]
Pressure (altimeter): 29.88 inches Hg (1012.0 mb)
Winds: variable direction winds at 3 MPH (3 knots; 1.5 m/s)
Visibility: 6 or more miles (10+ km)
Ceiling: 6400 feet AGL
Clouds: few clouds at 4800 feet AGL
broken clouds at 6400 feet AGL
Weather: VCSH  (showers in vicinity)

METAR text: EDSB 182020Z VRB03KT 9000 -SHRA VCTS FEW030 BKN069CB 22/17 Q1012
Conditions at: EDSB (KARLSRUHE/BADEN , DE) observed 2020 UTC 18 August 2019
Temperature: 22.0°C (72°F)
Dewpoint: 17.0°C (63°F) [RH = 73%]
Pressure (altimeter): 29.88 inches Hg (1012.0 mb)
Winds: variable direction winds at 3 MPH (3 knots; 1.5 m/s)
Visibility: 6 miles ( 9 km)
Ceiling: 6900 feet AGL
Clouds: few clouds at 3000 feet AGL
broken clouds at 6900 feet AGL
Weather: -SHRA VCTS  (light rain showers, thunderstorm in vicinity)

METAR text: EDSB 181950Z 19005KT 140V250 CAVOK 22/17 Q1012
Conditions at: EDSB (KARLSRUHE/BADEN , DE) observed 1950 UTC 18 August 2019
Temperature: 22.0°C (72°F)
Dewpoint: 17.0°C (63°F) [RH = 73%]
Pressure (altimeter): 29.88 inches Hg (1012.0 mb)
Winds: from the S (190 degrees) at 6 MPH (5 knots; 2.6 m/s)
Visibility: 6 or more miles (10+ km)
Ceiling: ceiling and visibility are OK
Clouds: unknown
Weather: no significant weather observed at this time

METAR text: EDSB 181920Z VRB03KT 9999 VCSH NSC 23/16 Q1011
Conditions at: EDSB (KARLSRUHE/BADEN , DE) observed 1920 UTC 18 August 2019
Temperature: 23.0°C (73°F)
Dewpoint: 16.0°C (61°F) [RH = 65%]
Pressure (altimeter): 29.85 inches Hg (1011.0 mb)
Winds: variable direction winds at 3 MPH (3 knots; 1.5 m/s)
Visibility: 6 or more miles (10+ km)
Ceiling: at least 12,000 feet AGL
Clouds: sky clear below 12,000 feet AGL
Weather: VCSH  (showers in vicinity)

METAR text: EDSB 181850Z 28007KT 240V320 9999 -SHRA VCTS FEW052CB 23/16 Q1011
Conditions at: EDSB (KARLSRUHE/BADEN , DE) observed 1850 UTC 18 August 2019
Temperature: 23.0°C (73°F)
Dewpoint: 16.0°C (61°F) [RH = 65%]
Pressure (altimeter): 29.85 inches Hg (1011.0 mb)
Winds: from the W (280 degrees) at 8 MPH (7 knots; 3.6 m/s)
Visibility: 6 or more miles (10+ km)
Ceiling: at least 12,000 feet AGL
Clouds: few clouds at 5200 feet AGL
Weather: -SHRA VCTS  (light rain showers, thunderstorm in vicinity)

METAR text: EDSB 181820Z 28005G17KT 230V340 9999 BKN065TCU 26/18 Q1009
Conditions at: EDSB (KARLSRUHE/BADEN , DE) observed 1820 UTC 18 August 2019
Temperature: 26.0°C (79°F)
Dewpoint: 18.0°C (64°F) [RH = 61%]
Pressure (altimeter): 29.79 inches Hg (1009.0 mb)
Winds: from the W (280 degrees) at 6 MPH (5 knots; 2.6 m/s)
gusting to 20 MPH (17 knots; 8.7 m/s)
Visibility: 6 or more miles (10+ km)
Ceiling: 6500 feet AGL
Clouds: broken clouds at 6500 feet AGL
Weather: no significant weather observed at this time

METAR text: EDSB 181750Z 26007KT 220V310 9999 FEW056TCU 27/18 Q1009
Conditions at: EDSB (KARLSRUHE/BADEN , DE) observed 1750 UTC 18 August 2019
Temperature: 27.0°C (81°F)
Dewpoint: 18.0°C (64°F) [RH = 58%]
Pressure (altimeter): 29.79 inches Hg (1009.0 mb)
Winds: from the W (260 degrees) at 8 MPH (7 knots; 3.6 m/s)
Visibility: 6 or more miles (10+ km)
Ceiling: at least 12,000 feet AGL
Clouds: few clouds at 5600 feet AGL
Weather: no significant weather observed at this time

METAR text: EDSB 181720Z 23004KT 190V270 9999 FEW058TCU 26/19 Q1009
Conditions at: EDSB (KARLSRUHE/BADEN , DE) observed 1720 UTC 18 August 2019
Temperature: 26.0°C (79°F)
Dewpoint: 19.0°C (66°F) [RH = 65%]
Pressure (altimeter): 29.79 inches Hg (1009.0 mb)
Winds: from the SW (230 degrees) at 5 MPH (4 knots; 2.1 m/s)
Visibility: 6 or more miles (10+ km)
Ceiling: at least 12,000 feet AGL
Clouds: few clouds at 5800 feet AGL
Weather: no significant weather observed at this time

METAR text: EDSB 181650Z 25005KT 210V300 CAVOK 27/19 Q1009
Conditions at: EDSB (KARLSRUHE/BADEN , DE) observed 1650 UTC 18 August 2019
Temperature: 27.0°C (81°F)
Dewpoint: 19.0°C (66°F) [RH = 62%]
Pressure (altimeter): 29.79 inches Hg (1009.0 mb)
Winds: from the WSW (250 degrees) at 6 MPH (5 knots; 2.6 m/s)
Visibility: 6 or more miles (10+ km)
Ceiling: ceiling and visibility are OK
Clouds: unknown
Weather: no significant weather observed at this time

METAR text: EDSB 181620Z 23005KT CAVOK 27/19 Q1009
Conditions at: EDSB (KARLSRUHE/BADEN , DE) observed 1620 UTC 18 August 2019
Temperature: 27.0°C (81°F)
Dewpoint: 19.0°C (66°F) [RH = 62%]
Pressure (altimeter): 29.79 inches Hg (1009.0 mb)
Winds: from the SW (230 degrees) at 6 MPH (5 knots; 2.6 m/s)
Visibility: 6 or more miles (10+ km)
Ceiling: ceiling and visibility are OK
Clouds: unknown
Weather: no significant weather observed at this time

METAR text: EDSB 181550Z 21006KT 170V250 CAVOK 28/19 Q1008
Conditions at: EDSB (KARLSRUHE/BADEN , DE) observed 1550 UTC 18 August 2019
Temperature: 28.0°C (82°F)
Dewpoint: 19.0°C (66°F) [RH = 58%]
Pressure (altimeter): 29.76 inches Hg (1008.0 mb)
Winds: from the SSW (210 degrees) at 7 MPH (6 knots; 3.1 m/s)
Visibility: 6 or more miles (10+ km)
Ceiling: ceiling and visibility are OK
Clouds: unknown
Weather: no significant weather observed at this time

METAR text: EDSB 181520Z 20011KT 9999 SCT074TCU 28/18 Q1008
Conditions at: EDSB (KARLSRUHE/BADEN , DE) observed 1520 UTC 18 August 2019
Temperature: 28.0°C (82°F)
Dewpoint: 18.0°C (64°F) [RH = 55%]
Pressure (altimeter): 29.76 inches Hg (1008.0 mb)
Winds: from the SSW (200 degrees) at 13 MPH (11 knots; 5.7 m/s)
Visibility: 6 or more miles (10+ km)
Ceiling: at least 12,000 feet AGL
Clouds: scattered clouds at 7400 feet AGL
Weather: no significant weather observed at this time

METAR text: EDSB 181450Z 20012KT 9999 VCSH FEW046CB 28/17 Q1009
Conditions at: EDSB (KARLSRUHE/BADEN , DE) observed 1450 UTC 18 August 2019
Temperature: 28.0°C (82°F)
Dewpoint: 17.0°C (63°F) [RH = 51%]
Pressure (altimeter): 29.79 inches Hg (1009.0 mb)
Winds: from the SSW (200 degrees) at 14 MPH (12 knots; 6.2 m/s)
Visibility: 6 or more miles (10+ km)
Ceiling: at least 12,000 feet AGL
Clouds: few clouds at 4600 feet AGL
Weather: VCSH  (showers in vicinity)

METAR text: EDSB 181420Z 20010KT 9999 VCSH FEW047CB 31/18 Q1009
Conditions at: EDSB (KARLSRUHE/BADEN , DE) observed 1420 UTC 18 August 2019
Temperature: 31.0°C (88°F)
Dewpoint: 18.0°C (64°F) [RH = 46%]
Pressure (altimeter): 29.79 inches Hg (1009.0 mb)
Winds: from the SSW (200 degrees) at 12 MPH (10 knots; 5.1 m/s)
Visibility: 6 or more miles (10+ km)
Ceiling: at least 12,000 feet AGL
Clouds: few clouds at 4700 feet AGL
Weather: VCSH  (showers in vicinity)

METAR text: EDSB 181350Z 21008KT 9999 VCTS SCT065CB 30/18 Q1009
Conditions at: EDSB (KARLSRUHE/BADEN , DE) observed 1350 UTC 18 August 2019
Temperature: 30.0°C (86°F)
Dewpoint: 18.0°C (64°F) [RH = 49%]
Pressure (altimeter): 29.79 inches Hg (1009.0 mb)
Winds: from the SSW (210 degrees) at 9 MPH (8 knots; 4.1 m/s)
Visibility: 6 or more miles (10+ km)
Ceiling: at least 12,000 feet AGL
Clouds: scattered clouds at 6500 feet AGL
Weather: VCTS  (thunderstorm in vicinity)

METAR text: EDSB 181320Z 22008KT CAVOK 31/18 Q1008
Conditions at: EDSB (KARLSRUHE/BADEN , DE) observed 1320 UTC 18 August 2019
Temperature: 31.0°C (88°F)
Dewpoint: 18.0°C (64°F) [RH = 46%]
Pressure (altimeter): 29.76 inches Hg (1008.0 mb)
Winds: from the SW (220 degrees) at 9 MPH (8 knots; 4.1 m/s)
Visibility: 6 or more miles (10+ km)
Ceiling: ceiling and visibility are OK
Clouds: unknown
Weather: no significant weather observed at this time

METAR text: EDSB 181250Z 21010G20KT 190V250 CAVOK 30/16 Q1008
Conditions at: EDSB (KARLSRUHE/BADEN , DE) observed 1250 UTC 18 August 2019
Temperature: 30.0°C (86°F)
Dewpoint: 16.0°C (61°F) [RH = 43%]
Pressure (altimeter): 29.76 inches Hg (1008.0 mb)
Winds: from the SSW (210 degrees) at 12 MPH (10 knots; 5.1 m/s)
gusting to 23 MPH (20 knots; 10.3 m/s)
Visibility: 6 or more miles (10+ km)
Ceiling: ceiling and visibility are OK
Clouds: unknown
Weather: no significant weather observed at this time

METAR text: EDSB 181220Z 22011KT 190V250 CAVOK 31/17 Q1008
Conditions at: EDSB (KARLSRUHE/BADEN , DE) observed 1220 UTC 18 August 2019
Temperature: 31.0°C (88°F)
Dewpoint: 17.0°C (63°F) [RH = 43%]
Pressure (altimeter): 29.76 inches Hg (1008.0 mb)
Winds: from the SW (220 degrees) at 13 MPH (11 knots; 5.7 m/s)
Visibility: 6 or more miles (10+ km)
Ceiling: ceiling and visibility are OK
Clouds: unknown
Weather: no significant weather observed at this time

METAR text: EDSB 181150Z 20013KT 170V230 CAVOK 30/17 Q1008
Conditions at: EDSB (KARLSRUHE/BADEN , DE) observed 1150 UTC 18 August 2019
Temperature: 30.0°C (86°F)
Dewpoint: 17.0°C (63°F) [RH = 46%]
Pressure (altimeter): 29.76 inches Hg (1008.0 mb)
Winds: from the SSW (200 degrees) at 15 MPH (13 knots; 6.7 m/s)
Visibility: 6 or more miles (10+ km)
Ceiling: ceiling and visibility are OK
Clouds: unknown
Weather: no significant weather observed at this time

METAR text: EDSB 181120Z 20013KT 170V230 CAVOK 29/17 Q1008
Conditions at: EDSB (KARLSRUHE/BADEN , DE) observed 1120 UTC 18 August 2019
Temperature: 29.0°C (84°F)
Dewpoint: 17.0°C (63°F) [RH = 48%]
Pressure (altimeter): 29.76 inches Hg (1008.0 mb)
Winds: from the SSW (200 degrees) at 15 MPH (13 knots; 6.7 m/s)
Visibility: 6 or more miles (10+ km)
Ceiling: ceiling and visibility are OK
Clouds: unknown
Weather: no significant weather observed at this time

METAR text: EDSB 181050Z 21012KT CAVOK 29/17 Q1008
Conditions at: EDSB (KARLSRUHE/BADEN , DE) observed 1050 UTC 18 August 2019
Temperature: 29.0°C (84°F)
Dewpoint: 17.0°C (63°F) [RH = 48%]
Pressure (altimeter): 29.76 inches Hg (1008.0 mb)
Winds: from the SSW (210 degrees) at 14 MPH (12 knots; 6.2 m/s)
Visibility: 6 or more miles (10+ km)
Ceiling: ceiling and visibility are OK
Clouds: unknown
Weather: no significant weather observed at this time

METAR text: EDSB 181020Z 21013KT CAVOK 28/18 Q1009
Conditions at: EDSB (KARLSRUHE/BADEN , DE) observed 1020 UTC 18 August 2019
Temperature: 28.0°C (82°F)
Dewpoint: 18.0°C (64°F) [RH = 55%]
Pressure (altimeter): 29.79 inches Hg (1009.0 mb)
Winds: from the SSW (210 degrees) at 15 MPH (13 knots; 6.7 m/s)
Visibility: 6 or more miles (10+ km)
Ceiling: ceiling and visibility are OK
Clouds: unknown
Weather: no significant weather observed at this time

METAR text: EDSB 180950Z 20013KT CAVOK 28/19 Q1008
Conditions at: EDSB (KARLSRUHE/BADEN , DE) observed 0950 UTC 18 August 2019
Temperature: 28.0°C (82°F)
Dewpoint: 19.0°C (66°F) [RH = 58%]
Pressure (altimeter): 29.76 inches Hg (1008.0 mb)
Winds: from the SSW (200 degrees) at 15 MPH (13 knots; 6.7 m/s)
Visibility: 6 or more miles (10+ km)
Ceiling: ceiling and visibility are OK
Clouds: unknown
Weather: no significant weather observed at this time

METAR text: EDSB 180920Z 20005KT 170V230 CAVOK 25/20 Q1009
Conditions at: EDSB (KARLSRUHE/BADEN , DE) observed 0920 UTC 18 August 2019
Temperature: 25.0°C (77°F)
Dewpoint: 20.0°C (68°F) [RH = 74%]
Pressure (altimeter): 29.79 inches Hg (1009.0 mb)
Winds: from the SSW (200 degrees) at 6 MPH (5 knots; 2.6 m/s)
Visibility: 6 or more miles (10+ km)
Ceiling: ceiling and visibility are OK
Clouds: unknown
Weather: no significant weather observed at this time

METAR text: EDSB 180850Z 18005KT 150V220 CAVOK 24/20 Q1009
Conditions at: EDSB (KARLSRUHE/BADEN , DE) observed 0850 UTC 18 August 2019
Temperature: 24.0°C (75°F)
Dewpoint: 20.0°C (68°F) [RH = 78%]
Pressure (altimeter): 29.79 inches Hg (1009.0 mb)
Winds: from the S (180 degrees) at 6 MPH (5 knots; 2.6 m/s)
Visibility: 6 or more miles (10+ km)
Ceiling: ceiling and visibility are OK
Clouds: unknown
Weather: no significant weather observed at this time

METAR text: EDSB 180820Z 19003KT 140V240 CAVOK 23/19 Q1009
Conditions at: EDSB (KARLSRUHE/BADEN , DE) observed 0820 UTC 18 August 2019
Temperature: 23.0°C (73°F)
Dewpoint: 19.0°C (66°F) [RH = 78%]
Pressure (altimeter): 29.79 inches Hg (1009.0 mb)
Winds: from the S (190 degrees) at 3 MPH (3 knots; 1.5 m/s)
Visibility: 6 or more miles (10+ km)
Ceiling: ceiling and visibility are OK
Clouds: unknown
Weather: no significant weather observed at this time

METAR text: EDSB 180750Z 21004KT 170V240 CAVOK 21/18 Q1009
Conditions at: EDSB (KARLSRUHE/BADEN , DE) observed 0750 UTC 18 August 2019
Temperature: 21.0°C (70°F)
Dewpoint: 18.0°C (64°F) [RH = 83%]
Pressure (altimeter): 29.79 inches Hg (1009.0 mb)
Winds: from the SSW (210 degrees) at 5 MPH (4 knots; 2.1 m/s)
Visibility: 6 or more miles (10+ km)
Ceiling: ceiling and visibility are OK
Clouds: unknown
Weather: no significant weather observed at this time

METAR text: EDSB 180720Z 20004KT CAVOK 20/17 Q1009
Conditions at: EDSB (KARLSRUHE/BADEN , DE) observed 0720 UTC 18 August 2019
Temperature: 20.0°C (68°F)
Dewpoint: 17.0°C (63°F) [RH = 83%]
Pressure (altimeter): 29.79 inches Hg (1009.0 mb)
Winds: from the SSW (200 degrees) at 5 MPH (4 knots; 2.1 m/s)
Visibility: 6 or more miles (10+ km)
Ceiling: ceiling and visibility are OK
Clouds: unknown
Weather: no significant weather observed at this time

METAR text: EDSB 180650Z VRB02KT CAVOK 19/17 Q1009
Conditions at: EDSB (KARLSRUHE/BADEN , DE) observed 0650 UTC 18 August 2019
Temperature: 19.0°C (66°F)
Dewpoint: 17.0°C (63°F) [RH = 88%]
Pressure (altimeter): 29.79 inches Hg (1009.0 mb)
Winds: variable direction winds at 2 MPH (2 knots; 1.0 m/s)
Visibility: 6 or more miles (10+ km)
Ceiling: ceiling and visibility are OK
Clouds: unknown
Weather: no significant weather observed at this time

METAR text: EDSB 180620Z 00000KT CAVOK 19/16 Q1010
Conditions at: EDSB (KARLSRUHE/BADEN , DE) observed 0620 UTC 18 August 2019
Temperature: 19.0°C (66°F)
Dewpoint: 16.0°C (61°F) [RH = 83%]
Pressure (altimeter): 29.82 inches Hg (1010.0 mb)
Winds: calm
Visibility: 6 or more miles (10+ km)
Ceiling: ceiling and visibility are OK
Clouds: unknown
Weather: no significant weather observed at this time

METAR text: EDSB 180550Z 00000KT CAVOK 19/16 Q1010
Conditions at: EDSB (KARLSRUHE/BADEN , DE) observed 0550 UTC 18 August 2019
Temperature: 19.0°C (66°F)
Dewpoint: 16.0°C (61°F) [RH = 83%]
Pressure (altimeter): 29.82 inches Hg (1010.0 mb)
Winds: calm
Visibility: 6 or more miles (10+ km)
Ceiling: ceiling and visibility are OK
Clouds: unknown
Weather: no significant weather observed at this time

METAR text: EDSB 180520Z 00000KT 9999 FEW003 18/17 Q1010
Conditions at: EDSB (KARLSRUHE/BADEN , DE) observed 0520 UTC 18 August 2019
Temperature: 18.0°C (64°F)
Dewpoint: 17.0°C (63°F) [RH = 94%]
Pressure (altimeter): 29.82 inches Hg (1010.0 mb)
Winds: calm
Visibility: 6 or more miles (10+ km)
Ceiling: at least 12,000 feet AGL
Clouds: few clouds at 300 feet AGL
Weather: no significant weather observed at this time

METAR text: EDSB 180450Z 15003KT 120V180 CAVOK 16/16 Q1010
Conditions at: EDSB (KARLSRUHE/BADEN , DE) observed 0450 UTC 18 August 2019
Temperature: 16.0°C (61°F)
Dewpoint: 16.0°C (61°F) [RH = 100%]
Pressure (altimeter): 29.82 inches Hg (1010.0 mb)
Winds: from the SSE (150 degrees) at 3 MPH (3 knots; 1.5 m/s)
Visibility: 6 or more miles (10+ km)
Ceiling: ceiling and visibility are OK
Clouds: unknown
Weather: no significant weather observed at this time

METAR text: EDSB 180420Z 21004KT CAVOK 17/16 Q1010
Conditions at: EDSB (KARLSRUHE/BADEN , DE) observed 0420 UTC 18 August 2019
Temperature: 17.0°C (63°F)
Dewpoint: 16.0°C (61°F) [RH = 94%]
Pressure (altimeter): 29.82 inches Hg (1010.0 mb)
Winds: from the SSW (210 degrees) at 5 MPH (4 knots; 2.1 m/s)
Visibility: 6 or more miles (10+ km)
Ceiling: ceiling and visibility are OK
Clouds: unknown
Weather: no significant weather observed at this time

METAR text: EDSB 180350Z 22004KT CAVOK 17/16 Q1010
Conditions at: EDSB (KARLSRUHE/BADEN , DE) observed 0350 UTC 18 August 2019
Temperature: 17.0°C (63°F)
Dewpoint: 16.0°C (61°F) [RH = 94%]
Pressure (altimeter): 29.82 inches Hg (1010.0 mb)
Winds: from the SW (220 degrees) at 5 MPH (4 knots; 2.1 m/s)
Visibility: 6 or more miles (10+ km)
Ceiling: ceiling and visibility are OK
Clouds: unknown
Weather: no significant weather observed at this time

METAR text: EDSB 180320Z 22005KT 9999 FEW043 17/16 Q1010
Conditions at: EDSB (KARLSRUHE/BADEN , DE) observed 0320 UTC 18 August 2019
Temperature: 17.0°C (63°F)
Dewpoint: 16.0°C (61°F) [RH = 94%]
Pressure (altimeter): 29.82 inches Hg (1010.0 mb)
Winds: from the SW (220 degrees) at 6 MPH (5 knots; 2.6 m/s)
Visibility: 6 or more miles (10+ km)
Ceiling: at least 12,000 feet AGL
Clouds: few clouds at 4300 feet AGL
Weather: no significant weather observed at this time

METAR text: EDSB 180250Z AUTO 24004KT 200V270 9999 // BKN043/// OVC085/// 17/16 Q1010
Conditions at: EDSB (KARLSRUHE/BADEN , DE) observed 0250 UTC 18 August 2019
Temperature: 17.0°C (63°F)
Dewpoint: 16.0°C (61°F) [RH = 94%]
Pressure (altimeter): 29.82 inches Hg (1010.0 mb)
Winds: from the WSW (240 degrees) at 5 MPH (4 knots; 2.1 m/s)
Visibility: 6 or more miles (10+ km)
Ceiling: 4300 feet AGL
Clouds: broken clouds at 4300 feet AGL
overcast cloud deck at 8500 feet AGL
Weather: no significant weather observed at this time

METAR text: EDSB 180220Z AUTO 20004KT 9999 // FEW046/// BKN091/// BKN130/// 17/16 Q1010
Conditions at: EDSB (KARLSRUHE/BADEN , DE) observed 0220 UTC 18 August 2019
Temperature: 17.0°C (63°F)
Dewpoint: 16.0°C (61°F) [RH = 94%]
Pressure (altimeter): 29.82 inches Hg (1010.0 mb)
Winds: from the SSW (200 degrees) at 5 MPH (4 knots; 2.1 m/s)
Visibility: 6 or more miles (10+ km)
Ceiling: 9100 feet AGL
Clouds: few clouds at 4600 feet AGL
broken clouds at 9100 feet AGL
broken clouds at 13000 feet AGL
Weather: no significant weather observed at this time

METAR text: EDSB 180150Z AUTO 17003KT 9999 // FEW046/// BKN130/// BKN200/// 16/16 Q1010
Conditions at: EDSB (KARLSRUHE/BADEN , DE) observed 0150 UTC 18 August 2019
Temperature: 16.0°C (61°F)
Dewpoint: 16.0°C (61°F) [RH = 100%]
Pressure (altimeter): 29.82 inches Hg (1010.0 mb)
Winds: from the S (170 degrees) at 3 MPH (3 knots; 1.5 m/s)
Visibility: 6 or more miles (10+ km)
Ceiling: 13000 feet AGL
Clouds: few clouds at 4600 feet AGL
broken clouds at 13000 feet AGL
broken clouds at 20000 feet AGL
Weather: no significant weather observed at this time

METAR text: EDSB 180120Z AUTO 18003KT 9999 // FEW056/// BKN130/// BKN200/// 17/17 Q1010
Conditions at: EDSB (KARLSRUHE/BADEN , DE) observed 0120 UTC 18 August 2019
Temperature: 17.0°C (63°F)
Dewpoint: 17.0°C (63°F) [RH = 100%]
Pressure (altimeter): 29.82 inches Hg (1010.0 mb)
Winds: from the S (180 degrees) at 3 MPH (3 knots; 1.5 m/s)
Visibility: 6 or more miles (10+ km)
Ceiling: 13000 feet AGL
Clouds: few clouds at 5600 feet AGL
broken clouds at 13000 feet AGL
broken clouds at 20000 feet AGL
Weather: no significant weather observed at this time

METAR text: EDSB 180050Z AUTO VRB02KT 9000 // SCT058/// BKN100/// OVC120/// 17/16 Q1011
Conditions at: EDSB (KARLSRUHE/BADEN , DE) observed 0050 UTC 18 August 2019
Temperature: 17.0°C (63°F)
Dewpoint: 16.0°C (61°F) [RH = 94%]
Pressure (altimeter): 29.85 inches Hg (1011.0 mb)
Winds: variable direction winds at 2 MPH (2 knots; 1.0 m/s)
Visibility: 6 miles ( 9 km)
Ceiling: 10000 feet AGL
Clouds: scattered clouds at 5800 feet AGL
broken clouds at 10000 feet AGL
overcast cloud deck at 12000 feet AGL
Weather: no significant weather observed at this time

METAR text: EDSB 180020Z AUTO 19003KT 9999 // FEW066/// BKN120/// BKN150/// 16/16 Q1011
Conditions at: EDSB (KARLSRUHE/BADEN , DE) observed 0020 UTC 18 August 2019
Temperature: 16.0°C (61°F)
Dewpoint: 16.0°C (61°F) [RH = 100%]
Pressure (altimeter): 29.85 inches Hg (1011.0 mb)
Winds: from the S (190 degrees) at 3 MPH (3 knots; 1.5 m/s)
Visibility: 6 or more miles (10+ km)
Ceiling: 12000 feet AGL
Clouds: few clouds at 6600 feet AGL
broken clouds at 12000 feet AGL
broken clouds at 15000 feet AGL
Weather: no significant weather observed at this time

METAR text: EDSB 172350Z AUTO 22002KT 8000 // FEW120/// SCT150/// BKN180/// 16/16 Q1011
Conditions at: EDSB (KARLSRUHE/BADEN , DE) observed 2350 UTC 17 August 2019
Temperature: 16.0°C (61°F)
Dewpoint: 16.0°C (61°F) [RH = 100%]
Pressure (altimeter): 29.85 inches Hg (1011.0 mb)
Winds: from the SW (220 degrees) at 2 MPH (2 knots; 1.0 m/s)
Visibility: 5 miles ( 8 km)
Ceiling: 18000 feet AGL
Clouds: few clouds at 12000 feet AGL
scattered clouds at 15000 feet AGL
broken clouds at 18000 feet AGL
Weather: no significant weather observed at this time

METAR text: EDSB 172320Z AUTO 18002KT 9999 // FEW079/// BKN110/// BKN170/// 17/17 Q1011
Conditions at: EDSB (KARLSRUHE/BADEN , DE) observed 2320 UTC 17 August 2019
Temperature: 17.0°C (63°F)
Dewpoint: 17.0°C (63°F) [RH = 100%]
Pressure (altimeter): 29.85 inches Hg (1011.0 mb)
Winds: from the S (180 degrees) at 2 MPH (2 knots; 1.0 m/s)
Visibility: 6 or more miles (10+ km)
Ceiling: 11000 feet AGL
Clouds: few clouds at 7900 feet AGL
broken clouds at 11000 feet AGL
broken clouds at 17000 feet AGL
Weather: no significant weather observed at this time

METAR text: EDSB 172250Z AUTO VRB01KT 8000 // FEW095/// BKN170/// 17/17 Q1011
Conditions at: EDSB (KARLSRUHE/BADEN , DE) observed 2250 UTC 17 August 2019
Temperature: 17.0°C (63°F)
Dewpoint: 17.0°C (63°F) [RH = 100%]
Pressure (altimeter): 29.85 inches Hg (1011.0 mb)
Winds: variable direction winds at 1 MPH (1 knots; 0.5 m/s)
Visibility: 5 miles ( 8 km)
Ceiling: 17000 feet AGL
Clouds: few clouds at 9500 feet AGL
broken clouds at 17000 feet AGL
Weather: no significant weather observed at this time

METAR text: EDSB 172220Z AUTO VRB02KT 9999 // FEW075/// BKN120/// BKN150/// 17/17 Q1011
Conditions at: EDSB (KARLSRUHE/BADEN , DE) observed 2220 UTC 17 August 2019
Temperature: 17.0°C (63°F)
Dewpoint: 17.0°C (63°F) [RH = 100%]
Pressure (altimeter): 29.85 inches Hg (1011.0 mb)
Winds: variable direction winds at 2 MPH (2 knots; 1.0 m/s)
Visibility: 6 or more miles (10+ km)
Ceiling: 12000 feet AGL
Clouds: few clouds at 7500 feet AGL
broken clouds at 12000 feet AGL
broken clouds at 15000 feet AGL
Weather: no significant weather observed at this time

METAR text: EDSB 172150Z AUTO VRB02KT 9999 // FEW066/// BKN110/// 17/17 Q1011
Conditions at: EDSB (KARLSRUHE/BADEN , DE) observed 2150 UTC 17 August 2019
Temperature: 17.0°C (63°F)
Dewpoint: 17.0°C (63°F) [RH = 100%]
Pressure (altimeter): 29.85 inches Hg (1011.0 mb)
Winds: variable direction winds at 2 MPH (2 knots; 1.0 m/s)
Visibility: 6 or more miles (10+ km)
Ceiling: 11000 feet AGL
Clouds: few clouds at 6600 feet AGL
broken clouds at 11000 feet AGL
Weather: no significant weather observed at this time

METAR text: EDSB 172120Z AUTO 31004KT 9999 // SCT073/// BKN083/// OVC100/// 17/17 Q1012
Conditions at: EDSB (KARLSRUHE/BADEN , DE) observed 2120 UTC 17 August 2019
Temperature: 17.0°C (63°F)
Dewpoint: 17.0°C (63°F) [RH = 100%]
Pressure (altimeter): 29.88 inches Hg (1012.0 mb)
Winds: from the NW (310 degrees) at 5 MPH (4 knots; 2.1 m/s)
Visibility: 6 or more miles (10+ km)
Ceiling: 8300 feet AGL
Clouds: scattered clouds at 7300 feet AGL
broken clouds at 8300 feet AGL
overcast cloud deck at 10000 feet AGL
Weather: no significant weather observed at this time

METAR text: EDSB 172050Z AUTO 32003KT 9999 // FEW059/// BKN067/// OVC130/// 17/17 Q1012
Conditions at: EDSB (KARLSRUHE/BADEN , DE) observed 2050 UTC 17 August 2019
Temperature: 17.0°C (63°F)
Dewpoint: 17.0°C (63°F) [RH = 100%]
Pressure (altimeter): 29.88 inches Hg (1012.0 mb)
Winds: from the NW (320 degrees) at 3 MPH (3 knots; 1.5 m/s)
Visibility: 6 or more miles (10+ km)
Ceiling: 6700 feet AGL
Clouds: few clouds at 5900 feet AGL
broken clouds at 6700 feet AGL
overcast cloud deck at 13000 feet AGL
Weather: no significant weather observed at this time

METAR text: EDSB 172020Z 01004KT 9999 FEW042 BKN063 17/16 Q1012
Conditions at: EDSB (KARLSRUHE/BADEN , DE) observed 2020 UTC 17 August 2019
Temperature: 17.0°C (63°F)
Dewpoint: 16.0°C (61°F) [RH = 94%]
Pressure (altimeter): 29.88 inches Hg (1012.0 mb)
Winds: from the N (10 degrees) at 5 MPH (4 knots; 2.1 m/s)
Visibility: 6 or more miles (10+ km)
Ceiling: 6300 feet AGL
Clouds: few clouds at 4200 feet AGL
broken clouds at 6300 feet AGL
Weather: no significant weather observed at this time

METAR text: EDSB 171950Z VRB02KT 9999 FEW049 OVC071 17/17 Q1012
Conditions at: EDSB (KARLSRUHE/BADEN , DE) observed 1950 UTC 17 August 2019
Temperature: 17.0°C (63°F)
Dewpoint: 17.0°C (63°F) [RH = 100%]
Pressure (altimeter): 29.88 inches Hg (1012.0 mb)
Winds: variable direction winds at 2 MPH (2 knots; 1.0 m/s)
Visibility: 6 or more miles (10+ km)
Ceiling: 7100 feet AGL
Clouds: few clouds at 4900 feet AGL
overcast cloud deck at 7100 feet AGL
Weather: no significant weather observed at this time

METAR text: EDSB 171920Z 07003KT 040V110 9999 -RA FEW046 BKN064 17/17 Q1012
Conditions at: EDSB (KARLSRUHE/BADEN , DE) observed 1920 UTC 17 August 2019
Temperature: 17.0°C (63°F)
Dewpoint: 17.0°C (63°F) [RH = 100%]
Pressure (altimeter): 29.88 inches Hg (1012.0 mb)
Winds: from the ENE (70 degrees) at 3 MPH (3 knots; 1.5 m/s)
Visibility: 6 or more miles (10+ km)
Ceiling: 6400 feet AGL
Clouds: few clouds at 4600 feet AGL
broken clouds at 6400 feet AGL
Weather: -RA  (light rain)

METAR text: EDSB 171850Z 10003KT 9000 -RA BKN045 OVC058 17/16 Q1013
Conditions at: EDSB (KARLSRUHE/BADEN , DE) observed 1850 UTC 17 August 2019
Temperature: 17.0°C (63°F)
Dewpoint: 16.0°C (61°F) [RH = 94%]
Pressure (altimeter): 29.91 inches Hg (1013.0 mb)
Winds: from the E (100 degrees) at 3 MPH (3 knots; 1.5 m/s)
Visibility: 6 miles ( 9 km)
Ceiling: 4500 feet AGL
Clouds: broken clouds at 4500 feet AGL
overcast cloud deck at 5800 feet AGL
Weather: -RA  (light rain)

METAR text: EDSB 171820Z 18006KT 130V210 8000 -RA SCT044 BKN057 18/17 Q1013
Conditions at: EDSB (KARLSRUHE/BADEN , DE) observed 1820 UTC 17 August 2019
Temperature: 18.0°C (64°F)
Dewpoint: 17.0°C (63°F) [RH = 94%]
Pressure (altimeter): 29.91 inches Hg (1013.0 mb)
Winds: from the S (180 degrees) at 7 MPH (6 knots; 3.1 m/s)
Visibility: 5 miles ( 8 km)
Ceiling: 5700 feet AGL
Clouds: scattered clouds at 4400 feet AGL
broken clouds at 5700 feet AGL
Weather: -RA  (light rain)

METAR text: EDSB 171750Z 15005KT 8000 -RA BKN048 OVC065 18/17 Q1013
Conditions at: EDSB (KARLSRUHE/BADEN , DE) observed 1750 UTC 17 August 2019
Temperature: 18.0°C (64°F)
Dewpoint: 17.0°C (63°F) [RH = 94%]
Pressure (altimeter): 29.91 inches Hg (1013.0 mb)
Winds: from the SSE (150 degrees) at 6 MPH (5 knots; 2.6 m/s)
Visibility: 5 miles ( 8 km)
Ceiling: 4800 feet AGL
Clouds: broken clouds at 4800 feet AGL
overcast cloud deck at 6500 feet AGL
Weather: -RA  (light rain)

METAR text: EDSB 171720Z 17004KT 140V230 8000 -RA SCT041 BKN048 18/17 Q1013 RERA
Conditions at: EDSB (KARLSRUHE/BADEN , DE) observed 1720 UTC 17 August 2019
Temperature: 18.0°C (64°F)
Dewpoint: 17.0°C (63°F) [RH = 94%]
Pressure (altimeter): 29.91 inches Hg (1013.0 mb)
Winds: from the S (170 degrees) at 5 MPH (4 knots; 2.1 m/s)
Visibility: 5 miles ( 8 km)
Ceiling: 4800 feet AGL
Clouds: scattered clouds at 4100 feet AGL
broken clouds at 4800 feet AGL
Weather: -RA  (light rain)

METAR text: EDSB 171650Z 19005KT 6000 RA BKN045 OVC057 18/16 Q1013
Conditions at: EDSB (KARLSRUHE/BADEN , DE) observed 1650 UTC 17 August 2019
Temperature: 18.0°C (64°F)
Dewpoint: 16.0°C (61°F) [RH = 88%]
Pressure (altimeter): 29.91 inches Hg (1013.0 mb)
Winds: from the S (190 degrees) at 6 MPH (5 knots; 2.6 m/s)
Visibility: 4 miles ( 6 km)
Ceiling: 4500 feet AGL
Clouds: broken clouds at 4500 feet AGL
overcast cloud deck at 5700 feet AGL
Weather: RA  (moderate rain)

METAR text: EDSB 171620Z 23007KT 8000 RA SCT045 OVC050 19/15 Q1013
Conditions at: EDSB (KARLSRUHE/BADEN , DE) observed 1620 UTC 17 August 2019
Temperature: 19.0°C (66°F)
Dewpoint: 15.0°C (59°F) [RH = 78%]
Pressure (altimeter): 29.91 inches Hg (1013.0 mb)
Winds: from the SW (230 degrees) at 8 MPH (7 knots; 3.6 m/s)
Visibility: 5 miles ( 8 km)
Ceiling: 5000 feet AGL
Clouds: scattered clouds at 4500 feet AGL
overcast cloud deck at 5000 feet AGL
Weather: RA  (moderate rain)

METAR text: EDSB 171550Z 23010G20KT 180V270 9999 -SHRA FEW036 BKN044 22/15 Q1013
Conditions at: EDSB (KARLSRUHE/BADEN , DE) observed 1550 UTC 17 August 2019
Temperature: 22.0°C (72°F)
Dewpoint: 15.0°C (59°F) [RH = 65%]
Pressure (altimeter): 29.91 inches Hg (1013.0 mb)
Winds: from the SW (230 degrees) at 12 MPH (10 knots; 5.1 m/s)
gusting to 23 MPH (20 knots; 10.3 m/s)
Visibility: 6 or more miles (10+ km)
Ceiling: 4400 feet AGL
Clouds: few clouds at 3600 feet AGL
broken clouds at 4400 feet AGL
Weather: -SHRA  (light rain showers)

METAR text: EDSB 171520Z 25003KT 210V290 CAVOK 22/15 Q1013
Conditions at: EDSB (KARLSRUHE/BADEN , DE) observed 1520 UTC 17 August 2019
Temperature: 22.0°C (72°F)
Dewpoint: 15.0°C (59°F) [RH = 65%]
Pressure (altimeter): 29.91 inches Hg (1013.0 mb)
Winds: from the WSW (250 degrees) at 3 MPH (3 knots; 1.5 m/s)
Visibility: 6 or more miles (10+ km)
Ceiling: ceiling and visibility are OK
Clouds: unknown
Weather: no significant weather observed at this time

METAR text: EDSB 171450Z 26004KT 9999 -SHRA BKN048 OVC060 22/15 Q1013
Conditions at: EDSB (KARLSRUHE/BADEN , DE) observed 1450 UTC 17 August 2019
Temperature: 22.0°C (72°F)
Dewpoint: 15.0°C (59°F) [RH = 65%]
Pressure (altimeter): 29.91 inches Hg (1013.0 mb)
Winds: from the W (260 degrees) at 5 MPH (4 knots; 2.1 m/s)
Visibility: 6 or more miles (10+ km)
Ceiling: 4800 feet AGL
Clouds: broken clouds at 4800 feet AGL
overcast cloud deck at 6000 feet AGL
Weather: -SHRA  (light rain showers)

METAR text: EDSB 171420Z 22010KT CAVOK 23/14 Q1013
Conditions at: EDSB (KARLSRUHE/BADEN , DE) observed 1420 UTC 17 August 2019
Temperature: 23.0°C (73°F)
Dewpoint: 14.0°C (57°F) [RH = 57%]
Pressure (altimeter): 29.91 inches Hg (1013.0 mb)
Winds: from the SW (220 degrees) at 12 MPH (10 knots; 5.1 m/s)
Visibility: 6 or more miles (10+ km)
Ceiling: ceiling and visibility are OK
Clouds: unknown
Weather: no significant weather observed at this time

METAR text: EDSB 171350Z 22014KT CAVOK 23/15 Q1013
Conditions at: EDSB (KARLSRUHE/BADEN , DE) observed 1350 UTC 17 August 2019
Temperature: 23.0°C (73°F)
Dewpoint: 15.0°C (59°F) [RH = 61%]
Pressure (altimeter): 29.91 inches Hg (1013.0 mb)
Winds: from the SW (220 degrees) at 16 MPH (14 knots; 7.2 m/s)
Visibility: 6 or more miles (10+ km)
Ceiling: ceiling and visibility are OK
Clouds: unknown
Weather: no significant weather observed at this time

METAR text: EDSB 171320Z 21014KT CAVOK 24/15 Q1013
Conditions at: EDSB (KARLSRUHE/BADEN , DE) observed 1320 UTC 17 August 2019
Temperature: 24.0°C (75°F)
Dewpoint: 15.0°C (59°F) [RH = 57%]
Pressure (altimeter): 29.91 inches Hg (1013.0 mb)
Winds: from the SSW (210 degrees) at 16 MPH (14 knots; 7.2 m/s)
Visibility: 6 or more miles (10+ km)
Ceiling: ceiling and visibility are OK
Clouds: unknown
Weather: no significant weather observed at this time

METAR text: EDSB 171250Z 22012KT 190V260 CAVOK 24/15 Q1013
Conditions at: EDSB (KARLSRUHE/BADEN , DE) observed 1250 UTC 17 August 2019
Temperature: 24.0°C (75°F)
Dewpoint: 15.0°C (59°F) [RH = 57%]
Pressure (altimeter): 29.91 inches Hg (1013.0 mb)
Winds: from the SW (220 degrees) at 14 MPH (12 knots; 6.2 m/s)
Visibility: 6 or more miles (10+ km)
Ceiling: ceiling and visibility are OK
Clouds: unknown
Weather: no significant weather observed at this time

Forecast for: EDSB (KARLSRUHE/BADEN , DE)
Text: TAF EDSB 181700Z 1818/1918 22009KT CAVOK
Forecast period: 1800 UTC 18 August 2019 to 0700 UTC 19 August 2019
Forecast type: FROM: standard forecast or significant change
Winds: from the SW (220 degrees) at 10 MPH (9 knots; 4.6 m/s)
Visibility: 6 or more miles 10+ km)
Ceiling: unknown
Clouds: missing
Weather: NSW  (no significant weather)
Text: TEMPO 1818/1822 25020G40KT 2000 TSRA BKN020CB
Forecast period: 1800 to 2200 UTC 18 August 2019
Forecast type: TEMPORARY: The following changes expected for less than half the time period
Winds: from the WSW (250 degrees) at 23 MPH (20 knots; 10.3 m/s)
gusting to 46 MPH (40 knots; 20.6 m/s)
Visibility: 1.24 miles (2.00 km)
Ceiling: 2000 feet AGL
Clouds: broken clouds at 2000 feet AGL
Weather: TSRA  (rain associated with thunderstorm(s))
Text: PROB30
Forecast period: 2200 UTC 18 August 2019 to 0400 UTC 19 August 2019
Forecast type: TEMPORARY: The following changes expected for less than half the time period
Visibility: 2.49 miles (4.01 km)
Ceiling: 1500 feet AGL
Clouds: broken clouds at 1500 feet AGL
Weather: TSRA  (rain associated with thunderstorm(s))
Text: TEMPO 1822/1904 4000 TSRA BKN015CB
Forecast period: 0700 to 1800 UTC 19 August 2019
Forecast type: BECOMING: Conditions expected to become as follows by 1000 UTC 19 August 2019
Winds: from the NW (310 degrees) at 6 MPH (5 knots; 2.6 m/s)
Visibility: 6 or more miles 10+ km)
Ceiling: unknown
Clouds: missing
Weather: NSW  (no significant weather)